Aviation Digital Data Service (ADDS)

Output produced by METARs form (0126 UTC 25 October 2014)
found at http://www.aviationweather.gov/adds/metars/
 
KDCA 242334Z 2500/2524 31005KT P6SM SCT200 
     FM251900 26009KT P6SM FEW250